F/V Le Dolmen — FHMD — position and weather

sailwx.info

Track history (hours):
 
Tides and Currents Weather Stations Pressure Air Temp Water Temp Dewpoint Dewpoint Depression Visibility Wind Speed Wind Dir Waves Ship Positions

F/V Le Dolmen

Last reported at 2017-Mar-27 10:33 UTC. Time now 2017-Mar-27 10:46 UTC.
Position N 47°44' W 003°22'.

Length 18 m.

Type: Fishing. MMSI: 228374000.

Date/timePositionNaut miles runAvg speedWind from/ knotsBaromVisibWave heightAir tempDewpointWater temp
2017-Mar-27 10:33N 47°44' W 003°22'0 0.0
2017-Mar-27 09:33N 47°44' W 003°22'0 0.0
2017-Mar-27 08:33N 47°44' W 003°22'0 0.0
2017-Mar-27 07:34N 47°44' W 003°22'0 0.0
2017-Mar-27 06:33N 47°44' W 003°22'0 0.0
2017-Mar-27 05:33N 47°44' W 003°22'0 0.0
2017-Mar-27 04:34N 47°44' W 003°22'0 0.0
2017-Mar-27 03:34N 47°44' W 003°22'0 0.0
2017-Mar-27 02:33N 47°44' W 003°22'0 0.0
2017-Mar-27 01:33N 47°44' W 003°22'0 0.0
2017-Mar-27 00:33N 47°44' W 003°22'0 0.0
2017-Mar-26 23:33N 47°44' W 003°22'0 0.0
2017-Mar-26 22:33N 47°44' W 003°22'0 0.0
2017-Mar-26 21:33N 47°44' W 003°22'0 0.0
2017-Mar-26 20:33N 47°44' W 003°22'0 0.0
2017-Mar-26 19:33N 47°44' W 003°22'0 0.0
2017-Mar-26 18:34N 47°44' W 003°22'0 0.1
2017-Mar-26 17:33N 47°44' W 003°22'0 0.0
2017-Mar-26 16:33N 47°44' W 003°22'0 0.0
2017-Mar-26 15:33N 47°44' W 003°22'0 0.0
2017-Mar-26 14:34N 47°44' W 003°22'2 2.2
2017-Mar-26 13:33N 47°42' W 003°23'9 9.2
2017-Mar-26 12:33N 47°38' W 003°35'10 9.5
2017-Mar-26 11:33N 47°31' W 003°46'  
2017-Mar-20 08:33N 47°46' W 004°20'37 7.4
2017-Mar-20 03:32N 47°33' W 005°11'3 2.7
2017-Mar-20 02:27N 47°30' W 005°12'2 1.9
2017-Mar-20 01:33N 47°29' W 005°14'2 0.8
2017-Mar-19 23:33N 47°28' W 005°14'3 0.2
2017-Mar-19 11:17N 47°26' W 005°12'4 0.7
2017-Mar-19 05:09N 47°30' W 005°11'3 3.5
2017-Mar-19 04:13N 47°27' W 005°13'4 1.7
2017-Mar-19 01:33N 47°31' W 005°11'1 1.2
2017-Mar-19 00:33N 47°30' W 005°12'3 2.7
2017-Mar-18 23:32N 47°28' W 005°15'2 1.1
2017-Mar-18 21:15N 47°30' W 005°12'2 2.4
2017-Mar-18 20:25N 47°28' W 005°14'2 1.0
2017-Mar-18 18:31N 47°29' W 005°11'1 1.1
2017-Mar-18 17:33N 47°30' W 005°12'4 4.4
2017-Mar-18 16:33N 47°29' W 005°18'0 0.1
2017-Mar-18 15:33N 47°29' W 005°18'3 2.3
2017-Mar-18 14:19N 47°28' W 005°22'6 3.4
2017-Mar-18 12:28N 47°29' W 005°13'3 3.4
2017-Mar-18 11:33N 47°29' W 005°08'3 3.1
2017-Mar-18 10:25N 47°28' W 005°03'6 2.5
2017-Mar-18 08:14N 47°27' W 004°55'27 3.1
2017-Mar-17 23:30N 47°01' W 004°55'  
Track history (hours):
 
Tides and Currents Weather Stations Pressure Air Temp Water Temp Dewpoint Dewpoint Depression Visibility Wind Speed Wind Dir Waves Ship Positions

F/V Le Dolmen

Last reported at 2017-Mar-27 10:33 UTC. Time now 2017-Mar-27 10:46 UTC.
Position N 47°44' W 003°22'.

Length 18 m.

Type: Fishing. MMSI: 228374000.

Date/timePositionNaut miles runAvg speedWind from/ knotsBaromVisibWave heightAir tempDewpointWater temp
2017-Mar-27 10:33N 47°44' W 003°22'0 0.0
2017-Mar-27 09:33N 47°44' W 003°22'0 0.0
2017-Mar-27 08:33N 47°44' W 003°22'0 0.0
2017-Mar-27 07:34N 47°44' W 003°22'0 0.0
2017-Mar-27 06:33N 47°44' W 003°22'0 0.0
2017-Mar-27 05:33N 47°44' W 003°22'0 0.0
2017-Mar-27 04:34N 47°44' W 003°22'0 0.0
2017-Mar-27 03:34N 47°44' W 003°22'0 0.0
2017-Mar-27 02:33N 47°44' W 003°22'0 0.0
2017-Mar-27 01:33N 47°44' W 003°22'0 0.0
2017-Mar-27 00:33N 47°44' W 003°22'0 0.0
2017-Mar-26 23:33N 47°44' W 003°22'0 0.0
2017-Mar-26 22:33N 47°44' W 003°22'0 0.0
2017-Mar-26 21:33N 47°44' W 003°22'0 0.0
2017-Mar-26 20:33N 47°44' W 003°22'0 0.0
2017-Mar-26 19:33N 47°44' W 003°22'0 0.0
2017-Mar-26 18:34N 47°44' W 003°22'0 0.1
2017-Mar-26 17:33N 47°44' W 003°22'0 0.0
2017-Mar-26 16:33N 47°44' W 003°22'0 0.0
2017-Mar-26 15:33N 47°44' W 003°22'0 0.0
2017-Mar-26 14:34N 47°44' W 003°22'2 2.2
2017-Mar-26 13:33N 47°42' W 003°23'9 9.2
2017-Mar-26 12:33N 47°38' W 003°35'10 9.5
2017-Mar-26 11:33N 47°31' W 003°46'  
2017-Mar-20 08:33N 47°46' W 004°20'37 7.4
2017-Mar-20 03:32N 47°33' W 005°11'3 2.7
2017-Mar-20 02:27N 47°30' W 005°12'2 1.9
2017-Mar-20 01:33N 47°29' W 005°14'2 0.8
2017-Mar-19 23:33N 47°28' W 005°14'3 0.2
2017-Mar-19 11:17N 47°26' W 005°12'4 0.7
2017-Mar-19 05:09N 47°30' W 005°11'3 3.5
2017-Mar-19 04:13N 47°27' W 005°13'4 1.7
2017-Mar-19 01:33N 47°31' W 005°11'1 1.2
2017-Mar-19 00:33N 47°30' W 005°12'3 2.7
2017-Mar-18 23:32N 47°28' W 005°15'2 1.1
2017-Mar-18 21:15N 47°30' W 005°12'2 2.4
2017-Mar-18 20:25N 47°28' W 005°14'2 1.0
2017-Mar-18 18:31N 47°29' W 005°11'1 1.1
2017-Mar-18 17:33N 47°30' W 005°12'4 4.4
2017-Mar-18 16:33N 47°29' W 005°18'0 0.1
2017-Mar-18 15:33N 47°29' W 005°18'3 2.3
2017-Mar-18 14:19N 47°28' W 005°22'6 3.4
2017-Mar-18 12:28N 47°29' W 005°13'3 3.4
2017-Mar-18 11:33N 47°29' W 005°08'3 3.1
2017-Mar-18 10:25N 47°28' W 005°03'6 2.5
2017-Mar-18 08:14N 47°27' W 004°55'27 3.1
2017-Mar-17 23:30N 47°01' W 004°55'  

Dump ship's entire track history